Time;durP1;ratioP1;P1;durP2;ratioP2;P2;SDS_P1;SDS_P2;PMS_P1;PMS_P2;Temp;Humidity;BMP_temperature;BMP_pressure;BME280_temperature;BME280_humidity;BME280_pressure;Samples;Min_cycle;Max_cycle;Signal;HPM_P1;HPM_P2
2022/11/24 00:00:19;;;;;;;71.68;45.92;;;10.90;99.90;;;;;;4992825;28;20065;-68
2022/11/24 00:03:44;;;;;;;66.35;39.35;;;10.90;99.90;;;;;;4992503;28;20513;-69
2022/11/24 00:06:48;;;;;;;65.80;37.88;;;10.30;99.90;;;;;;4992769;28;20061;-69
2022/11/24 00:09:51;;;;;;;52.67;33.55;;;10.30;99.90;;;;;;4992564;28;20509;-68
2022/11/24 00:12:55;;;;;;;57.05;35.45;;;;;;;;;;4992563;28;20045;-68
2022/11/24 00:16:04;;;;;;;48.58;30.50;;;9.90;99.90;;;;;;4992411;28;20498;-68
2022/11/24 00:19:09;;;;;;;45.40;27.83;;;9.90;99.90;;;;;;4992261;28;20046;-68
2022/11/24 00:22:13;;;;;;;52.28;28.67;;;9.90;99.90;;;;;;4992489;28;20165;-68
2022/11/24 00:25:17;;;;;;;48.92;26.73;;;9.00;99.90;;;;;;4991486;28;20065;-68
2022/11/24 00:28:21;;;;;;;48.38;25.33;;;10.10;99.90;;;;;;4992371;28;20077;-68
2022/11/24 00:31:28;;;;;;;40.38;26.10;;;11.80;99.90;;;;;;4991934;28;20066;-68
2022/11/24 00:34:32;;;;;;;48.20;27.00;;;;;;;;;;4992033;28;20038;-69
2022/11/24 00:37:37;;;;;;;48.60;26.58;;;10.00;99.90;;;;;;4992083;28;20390;-69
2022/11/24 00:40:41;;;;;;;55.55;28.63;;;10.20;99.90;;;;;;4991959;28;20042;-68
2022/11/24 00:43:45;;;;;;;49.80;28.33;;;10.20;99.90;;;;;;4991907;28;20418;-67
2022/11/24 00:46:49;;;;;;;55.28;28.17;;;10.20;99.90;;;;;;4991223;28;20050;-68
2022/11/24 00:49:53;;;;;;;47.30;29.15;;;10.30;99.90;;;;;;4991784;28;20041;-68
2022/11/24 00:52:57;;;;;;;55.70;28.90;;;10.20;99.90;;;;;;4991602;28;20069;-68
2022/11/24 00:56:04;;;;;;;48.58;28.75;;;10.30;99.90;;;;;;4991785;28;20315;-68
2022/11/24 00:59:08;;;;;;;44.72;28.55;;;;;;;;;;4991625;28;20065;-68
2022/11/24 01:02:12;;;;;;;44.92;26.02;;;;;;;;;;4991771;28;20045;-68
2022/11/24 01:05:17;;;;;;;46.88;25.95;;;;;;;;;;4991993;28;20053;-69
2022/11/24 01:08:21;;;;;;;53.28;25.60;;;;;;;;;;4991481;28;20232;-68
2022/11/24 01:12:00;;;;;;;36.75;22.02;;;9.80;99.90;;;;;;4991672;28;20041;-68
2022/11/24 01:14:58;;;;;;;38.53;20.40;;;;;;;;;;4991763;28;20046;-69
2022/11/24 01:18:03;;;;;;;32.70;19.63;;;;;;;;;;5002275;28;20536;-68
2022/11/24 01:21:07;;;;;;;37.80;20.40;;;9.20;99.90;;;;;;4991611;28;20570;-68
2022/11/24 01:24:12;;;;;;;34.15;17.38;;;9.80;99.90;;;;;;4991449;28;20049;-69
2022/11/24 01:27:17;;;;;;;33.42;18.48;;;;;;;;;;4991657;28;20051;-68
2022/11/24 01:30:21;;;;;;;37.70;19.02;;;;;;;;;;4991561;28;20517;-69
2022/11/24 01:33:25;;;;;;;32.28;18.15;;;10.10;99.90;;;;;;4991625;28;20509;-69
2022/11/24 01:36:30;;;;;;;31.25;17.33;;;;;;;;;;4991762;28;20402;-69
2022/11/24 01:39:35;;;;;;;31.50;18.08;;;;;;;;;;4991445;28;20049;-69
2022/11/24 01:42:45;;;;;;;36.35;18.70;;;10.20;99.90;;;;;;4991346;28;20049;-69
2022/11/24 01:45:49;;;;;;;35.92;20.58;;;;;;;;;;4991231;28;20509;-69
2022/11/24 01:49:17;;;;;;;37.13;19.08;;;10.20;99.90;;;;;;4991177;28;20529;-68
2022/11/24 01:52:31;;;;;;;37.40;18.33;;;10.50;99.90;;;;;;4991283;28;20046;-68
2022/11/24 01:55:38;;;;;;;31.33;18.88;;;10.20;99.90;;;;;;4991253;28;20297;-69
2022/11/24 01:58:44;;;;;;;33.83;20.63;;;10.10;99.90;;;;;;4993415;28;20045;-69
2022/11/24 02:01:51;;;;;;;36.55;18.60;;;10.20;99.90;;;;;;4994864;28;20041;-69
2022/11/24 02:05:06;;;;;;;31.45;16.20;;;10.30;99.90;;;;;;4995127;28;20053;-69
2022/11/24 02:08:35;;;;;;;29.35;15.65;;;10.00;99.90;;;;;;4994674;28;20049;-69
2022/11/24 02:11:40;;;;;;;32.30;15.80;;;9.90;99.90;;;;;;4994633;28;20038;-69
2022/11/24 02:14:45;;;;;;;29.98;15.35;;;;;;;;;;4994944;28;20049;-69
2022/11/24 02:17:49;;;;;;;31.23;16.30;;;;;;;;;;4994765;28;20045;-69
2022/11/24 02:20:54;;;;;;;32.47;16.38;;;;;;;;;;4994860;28;20053;-69
2022/11/24 02:24:27;;;;;;;31.98;16.67;;;8.50;99.90;;;;;;4994398;28;20077;-69
2022/11/24 02:27:31;;;;;;;33.70;16.42;;;;;;;;;;4994284;28;20045;-69
2022/11/24 02:30:36;;;;;;;28.30;15.23;;;;;;;;;;4994898;28;20064;-69
2022/11/24 02:33:40;;;;;;;27.98;14.57;;;10.20;99.90;;;;;;4994331;28;20042;-69
2022/11/24 02:36:44;;;;;;;28.05;15.25;;;10.00;99.90;;;;;;4994299;28;20049;-69
2022/11/24 02:39:49;;;;;;;28.83;14.73;;;;;;;;;;4994284;28;20061;-69
2022/11/24 02:43:06;;;;;;;30.30;14.32;;;11.80;99.90;;;;;;4994191;28;20045;-69
2022/11/24 02:46:10;;;;;;;23.88;14.55;;;11.10;99.90;;;;;;4994159;28;20307;-69
2022/11/24 02:49:15;;;;;;;25.38;14.27;;;10.10;99.90;;;;;;4994250;28;20505;-69
2022/11/24 02:52:18;;;;;;;32.30;15.65;;;10.30;99.90;;;;;;4994200;28;20399;-69
2022/11/24 02:55:23;;;;;;;30.00;16.60;;;;;;;;;;4993954;28;20057;-69
2022/11/24 02:58:28;;;;;;;37.28;17.13;;;;;;;;;;4994221;28;20041;-69
2022/11/24 03:01:32;;;;;;;36.20;19.08;;;;;;;;;;4994179;28;20386;-69
2022/11/24 03:04:36;;;;;;;39.78;18.02;;;10.10;99.90;;;;;;4993694;28;20069;-69
2022/11/24 03:07:40;;;;;;;35.53;18.38;;;;;;;;;;4993886;28;20057;-69
2022/11/24 03:10:44;;;;;;;31.98;18.48;;;9.70;99.90;;;;;;4993311;28;20517;-69
2022/11/24 03:13:49;;;;;;;38.83;17.98;;;10.20;99.90;;;;;;4993833;28;20042;-69
2022/11/24 03:16:53;;;;;;;35.72;19.67;;;9.70;99.90;;;;;;4993603;28;20599;-69
2022/11/24 03:19:58;;;;;;;37.15;18.00;;;9.00;99.90;;;;;;4994092;28;20049;-69
2022/11/24 03:23:03;;;;;;;27.73;17.92;;;;;;;;;;4993840;28;20061;-69
2022/11/24 03:26:16;;;;;;;32.45;17.83;;;9.70;99.90;;;;;;4993640;28;20042;-69
2022/11/24 03:29:20;;;;;;;26.63;16.58;;;9.60;99.90;;;;;;4993627;28;20049;-69
2022/11/24 03:32:24;;;;;;;27.75;16.73;;;9.60;99.90;;;;;;4992804;28;20509;-69
2022/11/24 03:35:29;;;;;;;31.52;17.75;;;;;;;;;;4993598;28;20033;-69
2022/11/24 03:38:33;;;;;;;31.75;16.90;;;;;;;;;;4993286;28;20069;-68
2022/11/24 03:41:37;;;;;;;29.50;17.25;;;;;;;;;;4993636;28;20293;-68
2022/11/24 03:44:41;;;;;;;34.00;17.45;;;9.70;99.90;;;;;;4993281;28;20057;-68
2022/11/24 03:47:50;;;;;;;40.78;17.98;;;9.50;99.90;;;;;;4993344;28;20049;-68
2022/11/24 03:50:56;;;;;;;33.72;17.10;;;9.60;99.90;;;;;;4993373;28;20513;-69
2022/11/24 03:54:00;;;;;;;28.67;18.13;;;;;;;;;;4993011;28;20061;-69
2022/11/24 03:57:04;;;;;;;33.00;16.90;;;;;;;;;;4993134;28;20041;-68
2022/11/24 04:00:10;;;;;;;32.40;16.42;;;9.80;99.90;;;;;;4992886;28;20042;-68
2022/11/24 04:03:14;;;;;;;33.47;17.33;;;9.70;99.90;;;;;;4993006;28;20130;-68
2022/11/24 04:06:18;;;;;;;37.22;17.65;;;;;;;;;;4992974;28;20042;-68
2022/11/24 04:09:22;;;;;;;28.83;15.80;;;9.60;99.90;;;;;;4992671;28;20045;-68
2022/11/24 04:12:45;;;;;;;30.38;16.15;;;;;;;;;;4992713;28;20045;-68
2022/11/24 04:15:49;;;;;;;36.45;17.33;;;;;;;;;;4992305;28;20513;-68
2022/11/24 04:18:53;;;;;;;30.35;16.35;;;;;;;;;;4992334;28;20041;-68
2022/11/24 04:21:57;;;;;;;31.95;17.17;;;;;;;;;;4991315;28;20045;-68
2022/11/24 04:25:02;;;;;;;32.88;16.98;;;;;;;;;;4991478;28;20414;-68
2022/11/24 04:28:07;;;;;;;31.58;15.95;;;;;;;;;;4992499;28;20050;-69
2022/11/24 04:31:11;;;;;;;25.85;16.15;;;;;;;;;;4991921;28;20057;-68
2022/11/24 04:34:16;;;;;;;27.88;15.80;;;;;;;;;;4992263;28;20045;-68
2022/11/24 04:37:20;;;;;;;25.15;15.13;;;;;;;;;;4992171;28;20045;-68
2022/11/24 04:40:24;;;;;;;26.05;15.00;;;;;;;;;;4992202;28;20091;-68
2022/11/24 04:43:29;;;;;;;26.65;15.40;;;8.30;99.90;;;;;;4992100;28;20514;-68
2022/11/24 04:46:34;;;;;;;36.35;18.02;;;;;;;;;;4992065;28;20053;-69
2022/11/24 04:49:38;;;;;;;32.35;19.30;;;;;;;;;;4992178;28;20045;-68
2022/11/24 04:52:42;;;;;;;37.08;19.88;;;;;;;;;;4991860;28;20041;-68
2022/11/24 04:55:46;;;;;;;37.25;16.98;;;;;;;;;;4992495;28;20049;-69
2022/11/24 04:58:50;;;;;;;32.83;16.02;;;8.90;99.90;;;;;;4992225;28;20057;-69
2022/11/24 05:01:55;;;;;;;25.65;14.23;;;8.30;99.90;;;;;;4992248;28;20610;-69
2022/11/24 05:04:59;;;;;;;30.52;15.02;;;;;;;;;;4991626;28;20533;-69
2022/11/24 05:08:03;;;;;;;25.83;13.85;;;;;;;;;;4992002;28;20045;-69
2022/11/24 05:11:08;;;;;;;27.25;14.15;;;;;;;;;;4991834;28;20205;-68
2022/11/24 05:14:12;;;;;;;26.25;13.38;;;;;;;;;;4992046;28;20053;-69
2022/11/24 05:17:16;;;;;;;26.20;12.48;;;;;;;;;;4991841;28;20057;-69
2022/11/24 05:20:21;;;;;;;24.80;13.30;;;;;;;;;;4991853;28;20046;-69
2022/11/24 05:23:25;;;;;;;25.88;13.02;;;;;;;;;;4991608;28;20053;-69
2022/11/24 05:26:30;;;;;;;28.05;13.10;;;;;;;;;;4991893;28;20045;-69
2022/11/24 05:29:34;;;;;;;19.77;11.77;;;;;;;;;;4991893;28;20510;-69
2022/11/24 05:32:38;;;;;;;30.48;13.68;;;;;;;;;;4991988;28;20061;-69
2022/11/24 05:35:42;;;;;;;31.67;13.82;;;;;;;;;;4995752;28;20045;-69
2022/11/24 05:38:47;;;;;;;28.02;14.38;;;;;;;;;;4995747;28;20045;-69
2022/11/24 05:41:51;;;;;;;25.38;12.73;;;8.80;99.90;;;;;;4996042;28;20069;-68
2022/11/24 05:44:56;;;;;;;28.27;13.40;;;;;;;;;;4995526;28;20061;-69
2022/11/24 05:48:04;;;;;;;26.92;12.88;;;7.70;99.90;;;;;;4995890;28;20061;-70
2022/11/24 05:51:09;;;;;;;25.70;11.77;;;;;;;;;;4995525;28;20049;-69
2022/11/24 05:54:13;;;;;;;27.40;12.18;;;;;;;;;;4995181;28;20057;-68
2022/11/24 05:57:18;;;;;;;29.95;12.10;;;;;;;;;;4995627;28;20053;-67
2022/11/24 06:00:21;;;;;;;25.15;11.23;;;8.80;99.90;;;;;;4996121;28;20106;-69
2022/11/24 06:03:26;;;;;;;31.17;12.50;;;;;;;;;;4995568;28;20053;-69
2022/11/24 06:06:30;;;;;;;23.92;12.02;;;;;;;;;;4995583;28;20046;-68
2022/11/24 06:09:38;;;;;;;27.88;12.60;;;9.20;99.90;;;;;;4995676;28;20041;-70
2022/11/24 06:12:43;;;;;;;28.98;12.75;;;;;;;;;;4995243;28;20053;-70
2022/11/24 06:15:47;;;;;;;29.60;14.60;;;;;;;;;;4995289;28;20050;-69
2022/11/24 06:18:52;;;;;;;25.88;12.32;;;;;;;;;;4995877;28;20049;-69
2022/11/24 06:21:56;;;;;;;26.95;12.55;;;;;;;;;;4994861;28;20549;-68
2022/11/24 06:25:00;;;;;;;37.85;16.45;;;;;;;;;;4994697;28;20065;-72
2022/11/24 06:28:05;;;;;;;30.58;14.70;;;;;;;;;;4994861;28;20041;-69
2022/11/24 06:31:10;;;;;;;25.33;12.95;;;;;;;;;;4995434;28;20061;-70
2022/11/24 06:34:14;;;;;;;26.55;10.70;;;9.50;99.90;;;;;;4995240;28;20041;-70
2022/11/24 06:37:18;;;;;;;24.92;11.48;;;;;;;;;;4994821;28;20061;-70
2022/11/24 06:40:23;;;;;;;35.95;11.27;;;9.40;99.90;;;;;;4994542;28;20041;-69
2022/11/24 06:43:29;;;;;;;21.65;11.05;;;9.60;99.90;;;;;;4994146;28;20045;-69
2022/11/24 06:46:33;;;;;;;27.55;12.70;;;;;;;;;;4994200;28;20053;-70
2022/11/24 06:49:37;;;;;;;27.60;12.48;;;9.40;99.90;;;;;;4994022;28;20521;-69
2022/11/24 06:52:41;;;;;;;41.47;18.90;;;;;;;;;;4994709;28;20050;-69
2022/11/24 06:55:46;;;;;;;47.03;24.10;;;9.40;99.90;;;;;;4995011;28;20041;-69
2022/11/24 06:58:52;;;;;;;56.90;21.42;;;9.80;99.90;;;;;;4994906;28;20049;-69
2022/11/24 07:01:56;;;;;;;36.45;16.60;;;;;;;;;;4994168;28;20516;-70
2022/11/24 07:05:01;;;;;;;33.63;15.88;;;;;;;;;;4993448;28;20402;-69
2022/11/24 07:08:05;;;;;;;33.42;14.55;;;;;;;;;;4993063;28;20046;-69
2022/11/24 07:11:17;;;;;;;29.77;12.75;;;8.90;99.90;;;;;;4994789;28;20148;-72
2022/11/24 07:14:20;;;;;;;29.10;13.68;;;10.10;99.90;;;;;;4993012;28;20497;-68
2022/11/24 07:17:24;;;;;;;26.63;13.65;;;10.30;99.90;;;;;;4993610;28;20097;-68
2022/11/24 07:20:29;;;;;;;29.45;13.48;;;;;;;;;;4993581;28;20046;-72
2022/11/24 07:23:33;;;;;;;29.58;10.90;;;;;;;;;;4993201;28;20069;-69
2022/11/24 07:26:38;;;;;;;19.67;8.93;;;;;;;;;;4992152;28;20053;-68
2022/11/24 07:29:43;;;;;;;25.80;9.57;;;;;;;;;;4992605;28;20053;-67
2022/11/24 07:32:47;;;;;;;24.50;9.95;;;;;;;;;;4993194;28;20517;-66
2022/11/24 07:35:52;;;;;;;28.38;9.77;;;;;;;;;;4992921;28;20045;-67
2022/11/24 07:38:56;;;;;;;32.30;11.05;;;;;;;;;;4993296;28;20042;-68
2022/11/24 07:42:00;;;;;;;24.33;9.35;;;;;;;;;;4993492;28;20045;-67
2022/11/24 07:45:05;;;;;;;28.92;11.55;;;;;;;;;;4993607;28;20054;-70
2022/11/24 07:48:10;;;;;;;30.83;11.95;;;12.30;99.90;;;;;;4993170;28;20045;-69
2022/11/24 07:51:14;;;;;;;24.02;12.32;;;12.30;99.90;;;;;;4993261;28;20061;-69
2022/11/24 07:54:18;;;;;;;21.58;11.40;;;12.50;99.90;;;;;;4993461;28;20045;-69
2022/11/24 07:57:23;;;;;;;25.17;11.48;;;12.50;99.90;;;;;;4992397;28;20061;-69
2022/11/24 08:00:27;;;;;;;17.00;8.93;;;12.60;99.90;;;;;;4992403;28;20061;-67
2022/11/24 08:03:31;;;;;;;15.07;8.80;;;;;;;;;;4991914;28;20049;-67
2022/11/24 08:06:35;;;;;;;27.92;9.98;;;;;;;;;;4992051;28;20501;-68
2022/11/24 08:09:40;;;;;;;14.95;7.90;;;;;;;;;;4992717;28;20402;-66
2022/11/24 08:12:44;;;;;;;18.23;7.53;;;13.20;99.90;;;;;;4992708;28;20053;-66
2022/11/24 08:15:48;;;;;;;13.43;6.78;;;13.40;99.90;;;;;;4992699;28;20053;-71
2022/11/24 08:18:53;;;;;;;14.40;6.65;;;14.10;99.90;;;;;;4992175;28;20410;-71
2022/11/24 08:21:57;;;;;;;16.98;5.90;;;13.40;99.90;;;;;;4992471;28;20042;-70
2022/11/24 08:25:01;;;;;;;14.05;6.38;;;13.50;99.90;;;;;;4992116;28;20061;-68
2022/11/24 08:28:05;;;;;;;18.73;6.53;;;13.70;99.90;;;;;;4992366;28;20041;-69
2022/11/24 08:31:12;;;;;;;11.70;5.72;;;13.80;99.90;;;;;;4992059;28;20072;-69
2022/11/24 08:34:16;;;;;;;11.15;5.25;;;13.60;99.90;;;;;;4992479;28;20501;-67
2022/11/24 08:37:20;;;;;;;9.82;5.70;;;14.00;99.90;;;;;;4992490;28;20053;-69
2022/11/24 08:40:24;;;;;;;16.45;6.18;;;14.10;99.90;;;;;;4992388;28;20042;-70
2022/11/24 08:43:29;;;;;;;10.70;5.38;;;14.20;99.90;;;;;;4992350;28;20053;-70
2022/11/24 08:46:33;;;;;;;10.65;5.03;;;14.30;99.90;;;;;;4992495;28;20054;-69
2022/11/24 08:49:37;;;;;;;11.52;5.60;;;14.40;99.30;;;;;;4991784;28;20046;-68
2022/11/24 08:52:41;;;;;;;11.25;5.75;;;14.40;99.30;;;;;;4992290;28;20514;-68
2022/11/24 08:55:45;;;;;;;22.20;11.63;;;14.60;99.20;;;;;;4992204;28;20045;-65
2022/11/24 08:58:49;;;;;;;13.15;7.85;;;14.70;99.00;;;;;;4992124;28;20065;-69
2022/11/24 09:01:53;;;;;;;12.05;6.63;;;14.80;98.90;;;;;;4993079;28;20049;-69
2022/11/24 09:04:57;;;;;;;15.20;6.85;;;14.90;98.80;;;;;;4992789;28;20057;-71
2022/11/24 09:08:02;;;;;;;18.88;6.88;;;15.00;98.70;;;;;;4991471;28;20041;-69
2022/11/24 09:11:08;;;;;;;17.77;6.88;;;15.20;98.60;;;;;;4991695;28;20050;-70
2022/11/24 09:14:13;;;;;;;17.35;7.80;;;15.30;98.00;;;;;;4991532;28;20045;-73
2022/11/24 09:17:16;;;;;;;24.35;7.97;;;15.40;98.10;;;;;;4991546;28;20057;-68
2022/11/24 09:20:20;;;;;;;19.63;7.70;;;15.50;98.40;;;;;;4991798;28;20050;-71
2022/11/24 09:23:25;;;;;;;16.13;7.10;;;15.60;98.10;;;;;;4992061;28;20049;-68
2022/11/24 09:26:32;;;;;;;18.35;7.32;;;15.80;97.90;;;;;;4991316;28;20057;-68
2022/11/24 09:29:36;;;;;;;11.93;6.22;;;16.00;97.70;;;;;;4991174;28;20046;-68
2022/11/24 09:32:40;;;;;;;16.88;5.95;;;16.10;97.50;;;;;;4991264;28;20049;-69
2022/11/24 09:35:44;;;;;;;18.45;7.00;;;16.20;97.30;;;;;;4991519;28;20053;-69
2022/11/24 09:38:48;;;;;;;15.50;6.90;;;16.40;97.40;;;;;;4992029;28;20446;-70
2022/11/24 09:42:24;;;;;;;15.98;8.50;;;16.50;97.40;;;;;;4991782;28;20050;-70
2022/11/24 09:45:34;;;;;;;16.50;6.97;;;16.60;97.20;;;;;;4985469;28;20050;-71
2022/11/24 09:48:41;;;;;;;25.67;7.82;;;16.80;97.20;;;;;;4991894;28;20045;-70
2022/11/24 09:51:51;;;;;;;14.25;6.40;;;16.80;96.70;;;;;;5002406;28;20049;-70
2022/11/24 09:55:00;;;;;;;14.68;5.78;;;16.90;96.00;;;;;;5001928;28;20049;-70
2022/11/24 09:58:22;;;;;;;16.27;6.10;;;16.90;96.40;;;;;;4991984;28;20041;-70
2022/11/24 10:01:32;;;;;;;11.80;5.65;;;17.00;96.40;;;;;;5002785;28;20042;-70
2022/11/24 10:04:42;;;;;;;15.55;6.22;;;17.10;95.90;;;;;;4991685;28;20049;-70
2022/11/24 10:08:14;;;;;;;13.88;5.50;;;17.20;96.00;;;;;;5002172;28;20049;-69
2022/11/24 10:11:33;;;;;;;12.23;5.80;;;17.30;96.00;;;;;;4992050;28;20069;-69
2022/11/24 10:14:52;;;;;;;16.75;8.80;;;17.40;95.40;;;;;;4991991;28;20041;-69
2022/11/24 10:18:11;;;;;;;12.75;5.15;;;17.50;95.00;;;;;;4991878;28;20420;-69
2022/11/24 10:21:28;;;;;;;11.13;4.18;;;17.60;95.00;;;;;;4995587;28;20578;-71
2022/11/24 10:24:57;;;;;;;15.38;4.65;;;17.60;94.70;;;;;;4995599;28;20057;-70
2022/11/24 10:28:11;;;;;;;10.50;4.00;;;17.70;94.70;;;;;;4995248;28;20033;-70
2022/11/24 10:31:40;;;;;;;15.65;4.03;;;17.80;94.60;;;;;;4995041;28;20520;-71
2022/11/24 10:34:48;;;;;;;12.52;4.63;;;17.90;94.50;;;;;;4995040;28;20049;-71
2022/11/24 10:38:13;;;;;;;11.95;3.78;;;18.00;94.40;;;;;;4994639;28;20197;-70
2022/11/24 10:41:33;;;;;;;13.07;3.83;;;18.00;94.30;;;;;;4994056;28;20402;-70
2022/11/24 10:44:39;;;;;;;12.63;3.57;;;18.10;93.80;;;;;;4995065;28;20080;-70
2022/11/24 10:47:44;;;;;;;14.45;4.25;;;18.10;93.90;;;;;;4995222;28;20041;-70
2022/11/24 10:50:49;;;;;;;10.25;3.03;;;18.20;94.30;;;;;;5005113;28;20049;-71
2022/11/24 10:54:04;;;;;;;18.10;4.07;;;18.20;94.40;;;;;;4994518;28;20061;-70
2022/11/24 10:57:25;;;;;;;10.50;3.25;;;18.20;94.10;;;;;;4993999;28;20045;-71
2022/11/24 11:00:31;;;;;;;21.65;11.30;;;18.20;94.20;;;;;;4993697;28;20042;-70
2022/11/24 11:03:45;;;;;;;24.88;11.88;;;18.30;94.20;;;;;;4994759;28;20493;-71
2022/11/24 11:06:49;;;;;;;16.27;7.20;;;18.30;94.10;;;;;;4993933;28;20054;-70
2022/11/24 11:10:20;;;;;;;12.23;5.32;;;18.30;94.00;;;;;;4994545;28;20402;-71
2022/11/24 11:13:28;;;;;;;13.75;4.25;;;18.30;93.70;;;;;;4993742;28;20386;-70
2022/11/24 11:16:52;;;;;;;9.93;3.67;;;18.30;93.30;;;;;;4993765;28;20049;-70
2022/11/24 11:20:17;;;;;;;13.30;3.28;;;18.20;93.10;;;;;;4993777;28;20041;-69
2022/11/24 11:23:34;;;;;;;11.30;4.43;;;18.20;93.00;;;;;;4993692;28;20045;-70
2022/11/24 11:26:38;;;;;;;10.05;3.67;;;18.20;93.10;;;;;;4993370;28;20053;-70
2022/11/24 11:29:42;;;;;;;17.27;5.60;;;18.10;93.00;;;;;;4993406;28;20057;-69
2022/11/24 11:32:56;;;;;;;15.70;5.30;;;18.10;93.20;;;;;;4993289;28;20057;-70
2022/11/24 11:36:06;;;;;;;10.85;4.25;;;18.10;93.30;;;;;;4994592;28;20053;-70
2022/11/24 11:39:19;;;;;;;12.68;4.38;;;18.00;93.20;;;;;;5003817;28;20045;-70
2022/11/24 11:42:40;;;;;;;8.65;3.55;;;17.90;93.00;;;;;;4993913;28;20069;-71
2022/11/24 11:45:58;;;;;;;10.88;4.88;;;17.80;93.20;;;;;;4992095;28;20061;-69
2022/11/24 11:49:02;;;;;;;11.65;5.15;;;17.80;93.40;;;;;;4992992;28;20050;-71
2022/11/24 11:52:40;;;;;;;12.18;4.63;;;17.70;93.50;;;;;;4992890;28;20053;-70
2022/11/24 11:55:47;;;;;;;13.57;3.35;;;17.70;93.50;;;;;;4992730;28;20045;-71
2022/11/24 11:58:51;;;;;;;12.60;5.82;;;17.60;93.00;;;;;;4994002;28;20045;-71
2022/11/24 12:02:23;;;;;;;21.00;5.88;;;17.60;93.10;;;;;;5003404;28;20049;-70
2022/11/24 12:05:44;;;;;;;17.95;6.05;;;17.60;92.80;;;;;;4993243;28;20073;-69
2022/11/24 12:08:57;;;;;;;9.98;4.90;;;17.60;92.60;;;;;;4993150;28;20050;-70
2022/11/24 12:12:38;;;;;;;8.93;4.30;;;17.50;92.50;;;;;;4992463;28;20045;-71
2022/11/24 12:15:50;;;;;;;9.65;4.32;;;17.50;93.20;;;;;;4992869;28;20061;-71
2022/11/24 12:18:54;;;;;;;14.93;6.13;;;17.50;93.10;;;;;;4992650;28;20045;-70
2022/11/24 12:22:09;;;;;;;15.50;6.57;;;17.50;93.10;;;;;;4993226;28;20073;-70
2022/11/24 12:25:16;;;;;;;16.83;7.40;;;17.50;93.20;;;;;;4992926;28;20061;-67
2022/11/24 12:28:38;;;;;;;18.00;5.63;;;17.50;93.40;;;;;;4992449;28;20041;-69
2022/11/24 12:32:06;;;;;;;13.07;4.80;;;17.50;93.60;;;;;;4992009;28;20065;-69
2022/11/24 12:35:51;;;;;;;16.08;5.32;;;17.40;93.80;;;;;;4992029;28;20406;-69
2022/11/24 12:39:13;;;;;;;10.55;4.05;;;17.40;94.30;;;;;;4959417;28;20046;-69
2022/11/24 12:42:17;;;;;;;9.65;3.85;;;17.40;94.40;;;;;;4972244;28;20341;-69
2022/11/24 12:45:58;;;;;;;13.13;5.03;;;17.30;94.40;;;;;;4991096;28;20061;-70
2022/11/24 12:49:23;;;;;;;18.02;5.45;;;17.40;94.40;;;;;;4991983;28;20053;-68
2022/11/24 12:52:45;;;;;;;14.23;4.68;;;17.30;93.80;;;;;;4992199;28;20407;-68
2022/11/24 12:55:50;;;;;;;11.73;4.57;;;17.40;93.80;;;;;;4992155;28;20037;-73
2022/11/24 12:59:22;;;;;;;11.57;3.88;;;17.40;94.00;;;;;;4991839;28;20046;-69
2022/11/24 13:02:49;;;;;;;11.93;4.30;;;17.40;94.00;;;;;;4992191;28;20037;-69
2022/11/24 13:06:13;;;;;;;14.50;6.07;;;17.40;93.90;;;;;;4991813;28;20057;-70
2022/11/24 13:09:17;;;;;;;15.73;4.88;;;17.40;93.50;;;;;;4990371;28;20684;-66
2022/11/24 13:12:21;;;;;;;10.57;4.20;;;17.40;93.50;;;;;;4991625;28;20057;-74
2022/11/24 13:15:27;;;;;;;10.00;4.10;;;17.40;93.50;;;;;;5002623;28;20041;-70
2022/11/24 13:19:01;;;;;;;11.90;5.00;;;17.40;93.60;;;;;;4991943;28;20041;-70
2022/11/24 13:22:08;;;;;;;13.43;5.85;;;17.40;93.60;;;;;;4992004;28;20525;-70
2022/11/24 13:25:35;;;;;;;14.85;5.38;;;17.40;93.70;;;;;;4991964;28;20053;-70
2022/11/24 13:29:26;;;;;;;9.35;4.32;;;17.40;93.90;;;;;;4991691;28;20049;-73
2022/11/24 13:32:30;;;;;;;8.90;3.80;;;17.40;94.10;;;;;;4991887;28;20057;-70
2022/11/24 13:35:34;;;;;;;10.93;4.30;;;17.40;94.00;;;;;;4991800;28;20049;-69
2022/11/24 13:38:52;;;;;;;10.50;2.92;;;17.40;93.40;;;;;;4991200;28;20406;-69
2022/11/24 13:41:59;;;;;;;7.55;3.08;;;17.40;93.30;;;;;;5001907;28;20042;-71
2022/11/24 13:45:07;;;;;;;17.02;6.13;;;17.40;93.20;;;;;;4991475;28;20117;-70
2022/11/24 13:48:17;;;;;;;12.85;7.40;;;17.30;93.10;;;;;;4991554;28;20049;-71
2022/11/24 13:51:23;;;;;;;13.13;5.80;;;17.40;93.20;;;;;;4991652;28;20049;-72
2022/11/24 13:54:29;;;;;;;14.15;4.57;;;17.30;93.10;;;;;;4993471;28;20049;-71
2022/11/24 13:57:37;;;;;;;7.85;3.50;;;17.30;93.10;;;;;;4995548;28;20053;-70
2022/11/24 14:01:02;;;;;;;9.00;3.00;;;17.30;92.90;;;;;;4996281;28;20042;-71
2022/11/24 14:04:17;;;;;;;9.82;3.65;;;17.40;92.90;;;;;;4995166;28;20045;-71
2022/11/24 14:07:21;;;;;;;12.55;3.72;;;17.40;93.00;;;;;;4994879;28;20061;-70
2022/11/24 14:10:34;;;;;;;9.20;3.42;;;17.30;93.00;;;;;;4995200;28;20395;-69
2022/11/24 14:13:39;;;;;;;10.45;3.30;;;17.40;93.10;;;;;;4995343;28;20042;-67
2022/11/24 14:16:44;;;;;;;9.63;3.83;;;17.40;93.20;;;;;;4995088;28;20045;-69
2022/11/24 14:19:53;;;;;;;9.15;3.63;;;17.40;93.00;;;;;;4994735;28;20049;-70
2022/11/24 14:22:59;;;;;;;10.07;3.78;;;17.30;93.00;;;;;;4994719;28;20521;-68
2022/11/24 14:26:03;;;;;;;16.73;4.32;;;17.30;93.10;;;;;;4994671;28;20049;-69
2022/11/24 14:29:16;;;;;;;11.68;3.60;;;17.30;93.00;;;;;;4994720;28;20037;-70
2022/11/24 14:32:21;;;;;;;16.63;3.80;;;17.30;93.10;;;;;;4994662;28;20050;-68
2022/11/24 14:35:30;;;;;;;9.65;3.33;;;17.20;93.10;;;;;;4995001;28;20126;-71
2022/11/24 14:38:34;;;;;;;9.27;3.40;;;17.20;93.20;;;;;;4994769;28;20544;-69
2022/11/24 14:41:38;;;;;;;10.88;3.35;;;17.20;93.30;;;;;;4994589;28;20046;-70
2022/11/24 14:44:58;;;;;;;12.90;4.43;;;17.20;93.50;;;;;;4994562;28;20061;-69
2022/11/24 14:48:02;;;;;;;15.27;4.03;;;17.10;93.80;;;;;;4994611;28;20053;-70
2022/11/24 14:51:19;;;;;;;11.02;3.83;;;17.10;94.00;;;;;;4994619;28;20046;-69
2022/11/24 14:54:23;;;;;;;15.00;4.05;;;17.10;94.10;;;;;;4994758;28;20402;-70
2022/11/24 14:57:36;;;;;;;9.13;3.35;;;17.10;94.30;;;;;;4994538;28;20394;-69
2022/11/24 15:00:41;;;;;;;10.70;3.72;;;17.10;94.40;;;;;;4994784;28;20054;-68
2022/11/24 15:03:46;;;;;;;12.15;3.92;;;17.10;94.60;;;;;;4993802;28;20041;-69
2022/11/24 15:07:17;;;;;;;8.75;3.50;;;17.10;94.80;;;;;;5002860;28;20104;-70
2022/11/24 15:10:33;;;;;;;12.23;3.95;;;17.00;94.70;;;;;;4993311;28;20050;-69
2022/11/24 15:13:38;;;;;;;10.70;3.90;;;17.00;94.70;;;;;;4993629;28;20068;-68
2022/11/24 15:16:42;;;;;;;10.48;4.00;;;16.90;94.80;;;;;;4993605;28;20077;-70
2022/11/24 15:19:51;;;;;;;8.48;4.28;;;16.90;94.80;;;;;;4993523;28;20394;-69
2022/11/24 15:23:23;;;;;;;8.75;4.40;;;16.90;94.80;;;;;;4993368;28;20042;-69
2022/11/24 15:26:31;;;;;;;13.32;5.07;;;16.90;95.00;;;;;;4993421;28;20077;-69
2022/11/24 15:29:35;;;;;;;16.13;5.55;;;16.80;95.20;;;;;;4992657;28;20046;-66
2022/11/24 15:32:54;;;;;;;15.70;5.28;;;16.80;95.30;;;;;;4993287;28;20061;-71
2022/11/24 15:35:59;;;;;;;18.30;6.53;;;16.70;95.40;;;;;;4993659;28;20041;-71
2022/11/24 15:39:03;;;;;;;17.58;8.00;;;16.70;95.80;;;;;;4993259;28;20652;-68
2022/11/24 15:42:10;;;;;;;46.20;11.38;;;16.60;96.30;;;;;;4993345;28;20053;-71
2022/11/24 15:45:14;;;;;;;53.20;12.70;;;16.50;96.60;;;;;;5003591;28;20057;-70
2022/11/24 15:48:18;;;;;;;44.03;10.13;;;16.50;97.30;;;;;;4993034;28;20045;-72
2022/11/24 15:51:25;;;;;;;39.53;12.25;;;16.40;97.50;;;;;;4993248;28;20386;-73
2022/11/24 15:54:29;;;;;;;32.00;13.45;;;16.30;97.20;;;;;;4992976;28;20041;-70
2022/11/24 15:57:34;;;;;;;49.15;21.10;;;16.30;97.10;;;;;;4993138;28;20129;-68
2022/11/24 16:00:39;;;;;;;49.70;21.00;;;16.20;97.20;;;;;;5003092;28;20049;-70
2022/11/24 16:03:43;;;;;;;49.35;20.08;;;16.10;97.40;;;;;;4992464;28;20049;-70
2022/11/24 16:06:47;;;;;;;63.17;18.55;;;16.00;97.70;;;;;;4992441;28;20061;-69
2022/11/24 16:09:51;;;;;;;54.08;17.38;;;16.00;98.10;;;;;;4992699;28;20049;-70
2022/11/24 16:12:55;;;;;;;47.70;17.27;;;16.00;98.50;;;;;;4992840;28;20049;-71
2022/11/24 16:15:59;;;;;;;68.82;19.92;;;15.90;98.70;;;;;;4992360;28;20049;-71
2022/11/24 16:19:03;;;;;;;59.63;23.88;;;15.80;98.90;;;;;;4993237;28;20054;-71
2022/11/24 16:22:07;;;;;;;57.90;22.65;;;15.70;99.10;;;;;;4990981;28;20044;-69
2022/11/24 16:25:12;;;;;;;57.40;25.17;;;15.70;99.30;;;;;;4992598;28;20517;-71
2022/11/24 16:28:16;;;;;;;70.35;28.55;;;15.60;99.50;;;;;;4992238;28;20053;-69
2022/11/24 16:31:21;;;;;;;60.92;26.25;;;15.60;99.70;;;;;;4991695;28;20042;-70
2022/11/24 16:34:25;;;;;;;62.63;23.73;;;15.50;99.80;;;;;;4992605;28;20053;-68
2022/11/24 16:37:28;;;;;;;68.60;23.45;;;15.50;99.90;;;;;;4990687;28;20118;-68